Terminal Aerodrome Forecast
Issued by NWS

Home | Current Version | Previous Version | Text Only | Print | Product List | Glossary On
Versions: 1 2 3 4 5 6 7 8 9 10 11 12 13 14
000
FTUS45 KBOU 142324
TAFAPA
TAF
KAPA 142324Z 1500/1524 13006KT P6SM SCT050 BKN090
     FM150100 15006KT P6SM FEW050 SCT100
     FM150500 19008KT P6SM FEW220
     FM151600 23009KT P6SM FEW120 SCT220=

USA.gov is the U.S. government's official web portal to all federal, state and local government web resources and services.